Impacts TAF Board INFO
FOR SITUATIONAL AWARENESS. NOT TO BE USED FOR FLIGHT PLANNING PURPOSES.
IDs:

KEWR - Newark Intl, NJ, US

Issued at 1530 UTC 26 Apr 2018
Updated at 1655 UTC 26 Apr 2018
Potential Impact None Slight Moderate High
Time<<27/05Z 27/06Z 27/07Z 27/08Z 27/09Z 27/10Z 27/11Z 27/12Z 27/13Z 27/14Z 27/15Z 27/16Z 27/17Z>>
Type PRVL PRVL PRVL PRVL PRVL PRVL PRVL PRVL PRVL PRVL PRVL PRVL PRVL
VIS >6 >6 >6 >6 >6 >6 >6 >6 >6 4 4 4 3
CIG 250 250 250 250 250 250 250 100 100 50 50 50 30
Cover BKN BKN BKN BKN BKN BKN BKN BKN BKN BKN BKN BKN OVC
FltCat VFR VFR VFR VFR VFR VFR VFR VFR VFR MVFR MVFR MVFR MVFR
WX -- -- -- -- -- -- -- -- -- -RA -RA -RA -RA
WDir VRB VRB VRB VRB VRB VRB VRB 100 100 60 60 60 90
WSpd 4 4 4 4 4 4 4 6 6 7 7 7 8
WGst -- -- -- -- -- -- -- -- -- -- -- -- --

Raw TAF
KEWR 261530Z 2616/2718 30016G24KT P6SM SCT250
  FM261800 28014G23KT P6SM SCT040 SCT250
  FM270000 28008KT P6SM SKC
  FM270300 VRB04KT P6SM BKN250
  FM271200 10006KT P6SM SCT035 BKN100
  FM271400 06007KT 4SM -RA BKN050
  FM271700 09008KT 3SM -RA OVC030


METAR Board
Radar Display
Forecast Discussion

FOR SITUATIONAL AWARENESS. NOT TO BE USED FOR FLIGHT PLANNING PURPOSES.